Time;durP1;ratioP1;P1;durP2;ratioP2;P2;SDS_P1;SDS_P2;PMS_P1;PMS_P2;Temp;Humidity;BMP_temperature;BMP_pressure;BME280_temperature;BME280_humidity;BME280_pressure;Samples;Min_cycle;Max_cycle;Signal;HPM_P1;HPM_P2
2021/05/18 01:54:23;;;;;;;14.00;12.63;;;11.00;77.00;;;;;;5705546;22;20259;-91
2021/05/18 01:59:46;;;;;;;18.77;13.18;;;12.10;79.90;;;;;;4953642;28;20429;-89
2021/05/18 02:02:21;;;;;;;15.82;14.20;;;10.70;79.10;;;;;;4977166;28;20170;-89
2021/05/18 02:08:32;;;;;;;25.60;15.65;;;10.60;80.50;;;;;;4998547;28;20216;-89
2021/05/18 02:11:14;;;;;;;36.10;19.03;;;10.50;80.90;;;;;;4998826;28;20237;-90
2021/05/18 02:13:50;;;;;;;24.85;18.77;;;11.50;84.20;;;;;;4979091;28;20401;-90
2021/05/18 02:16:30;;;;;;;25.20;20.15;;;10.30;85.50;;;;;;4981215;28;20172;-90
2021/05/18 02:19:41;;;;;;;25.70;19.70;;;10.10;85.80;;;;;;4971075;28;20316;-91
2021/05/18 02:22:24;;;;;;;31.05;19.52;;;10.40;87.30;;;;;;5319793;23;20240;-91
2021/05/18 02:58:42;;;;;;;29.98;23.60;;;10.30;88.20;;;;;;5943587;22;20209;-90
2021/05/18 03:01:09;;;;;;;32.58;25.45;;;11.00;90.60;;;;;;4998550;28;20159;-89
2021/05/18 03:03:35;;;;;;;40.33;27.63;;;11.80;90.00;;;;;;4981800;28;20189;-88
2021/05/18 03:06:06;;;;;;;37.73;26.37;;;11.30;90.60;;;;;;4998027;28;20185;-90
2021/05/18 03:08:37;;;;;;;30.20;24.65;;;12.40;90.50;;;;;;4981300;28;20205;-89
2021/05/18 03:11:16;;;;;;;38.88;28.50;;;10.60;89.50;;;;;;4998098;28;20169;-90
2021/05/18 03:13:44;;;;;;;29.42;23.45;;;10.40;87.20;;;;;;4996830;28;20170;-90
2021/05/18 03:16:12;;;;;;;35.20;26.10;;;10.60;88.70;;;;;;4996046;28;20194;-90
2021/05/18 03:21:19;;;;;;;29.80;23.38;;;10.50;86.30;;;;;;5008260;22;20237;-89
2021/05/18 03:23:50;;;;;;;32.85;25.05;;;10.60;87.50;;;;;;4996799;28;20174;-89
2021/05/18 03:26:16;;;;;;;40.23;23.93;;;12.00;87.50;;;;;;4995243;28;20194;-90
2021/05/18 03:28:42;;;;;;;30.23;24.50;;;12.00;90.30;;;;;;4996053;28;20417;-90
2021/05/18 03:34:26;;;;;;;33.60;26.07;;;10.10;87.50;;;;;;4996382;28;20185;-91
2021/05/18 03:41:57;;;;;;;29.92;23.70;;;10.50;86.40;;;;;;5061621;22;20299;-89
2021/05/18 04:19:01;;;;;;;14.80;13.27;;;10.30;87.80;;;;;;5701564;22;21583;-90
2021/05/18 04:40:48;;;;;;;11.80;10.73;;;11.00;90.60;;;;;;5590223;22;20251;-90
2021/05/18 04:43:31;;;;;;;11.23;10.13;;;10.40;90.10;;;;;;5629749;22;20214;-88
2021/05/18 04:49:12;;;;;;;12.05;10.70;;;11.80;90.60;;;;;;5594646;22;20479;-86
2021/05/18 05:10:10;;;;;;;13.57;12.15;;;10.60;88.60;;;;;;5549413;22;20233;-90
2021/05/18 05:18:29;;;;;;;16.45;14.95;;;11.30;90.10;;;;;;5349749;22;20225;-89
2021/05/18 05:23:33;;;;;;;17.25;13.82;;;10.70;89.50;;;;;;5248216;22;20256;-90
2021/05/18 05:25:59;;;;;;;19.60;14.63;;;10.70;90.30;;;;;;5018266;23;20313;-89
2021/05/18 05:31:05;;;;;;;18.25;15.43;;;10.80;87.50;;;;;;5597582;22;20217;-87
2021/05/18 05:36:05;;;;;;;15.32;12.98;;;10.60;87.80;;;;;;5161602;22;20252;-88
2021/05/18 05:38:31;;;;;;;21.63;16.05;;;10.90;91.00;;;;;;5220914;22;20232;-88
2021/05/18 05:46:08;;;;;;;22.55;15.20;;;10.70;89.90;;;;;;5149801;22;20245;-87
2021/05/18 05:48:35;;;;;;;18.55;15.65;;;10.70;90.00;;;;;;5214800;23;20256;-88
2021/05/18 05:51:04;;;;;;;18.20;15.68;;;11.20;90.10;;;;;;5163154;22;20693;-89
2021/05/18 05:53:32;;;;;;;24.33;18.10;;;12.20;91.00;;;;;;4970017;28;20182;-88
2021/05/18 05:55:59;;;;;;;23.23;18.10;;;11.00;89.90;;;;;;5132867;23;20221;-90
2021/05/18 05:58:36;;;;;;;22.10;16.33;;;10.80;88.90;;;;;;4974107;28;20197;-89
2021/05/18 06:01:03;;;;;;;24.17;15.52;;;10.40;88.40;;;;;;5039351;23;20236;-86
2021/05/18 06:03:30;;;;;;;22.45;15.98;;;11.70;90.40;;;;;;5273158;22;20226;-89
2021/05/18 06:08:37;;;;;;;22.48;18.67;;;11.20;88.90;;;;;;5544367;22;20318;-86
2021/05/18 06:13:49;;;;;;;24.17;15.07;;;11.10;87.50;;;;;;4973393;28;20450;-90
2021/05/18 06:47:47;;;;;;;30.73;19.80;;;10.50;89.60;;;;;;4994863;28;20193;-90
2021/05/18 06:52:48;;;;;;;25.90;19.03;;;10.40;88.70;;;;;;4996291;28;20209;-90
2021/05/18 06:55:25;;;;;;;20.02;17.92;;;11.50;88.50;;;;;;4991127;28;20201;-88
2021/05/18 06:57:57;;;;;;;20.65;18.30;;;12.00;90.00;;;;;;4977122;28;20177;-87
2021/05/18 07:00:25;;;;;;;21.55;18.77;;;12.00;89.10;;;;;;4976160;28;20185;-88
2021/05/18 07:02:52;;;;;;;20.75;17.38;;;12.00;88.00;;;;;;4991593;28;20166;-88
2021/05/18 07:10:49;;;;;;;19.15;17.15;;;11.20;84.50;;;;;;4978592;28;20174;-90
2021/05/18 07:13:20;;;;;;;29.23;18.17;;;11.70;84.40;;;;;;4978750;28;20162;-87
2021/05/18 07:16:28;;;;;;;22.20;18.10;;;13.60;87.30;;;;;;4979528;28;20417;-88
2021/05/18 07:18:58;;;;;;;22.60;18.60;;;12.20;84.10;;;;;;4999478;28;20397;-87
2021/05/18 07:21:23;;;;;;;24.25;19.40;;;11.90;85.10;;;;;;4978249;28;20193;-86
2021/05/18 07:24:25;;;;;;;32.13;20.23;;;11.90;85.80;;;;;;4957969;28;20185;-88
2021/05/18 07:27:08;;;;;;;26.60;19.70;;;12.90;86.90;;;;;;4994349;28;20214;-88
2021/05/18 07:29:34;;;;;;;27.87;19.37;;;11.70;86.90;;;;;;4994954;28;20185;-88
2021/05/18 07:32:01;;;;;;;30.60;20.67;;;11.10;84.40;;;;;;4995373;28;20476;-89
2021/05/18 07:34:27;;;;;;;32.75;22.48;;;11.60;86.60;;;;;;4949277;29;20227;-91
2021/05/18 07:37:07;;;;;;;30.10;22.47;;;11.30;86.20;;;;;;4957682;28;20190;-89
2021/05/18 07:42:10;;;;;;;28.70;22.75;;;11.50;87.00;;;;;;5200695;22;20249;-89
2021/05/18 07:44:37;;;;;;;29.33;21.60;;;11.10;89.80;;;;;;5034533;22;20250;-90
2021/05/18 07:47:05;;;;;;;31.50;23.40;;;11.10;88.30;;;;;;5299279;23;20470;-88
2021/05/18 08:05:54;;;;;;;29.23;22.77;;;12.60;84.60;;;;;;4987571;28;20571;-88
2021/05/18 08:08:20;;;;;;;20.70;18.30;;;12.70;84.00;;;;;;4989418;28;20457;-87
2021/05/18 08:10:59;;;;;;;25.27;17.97;;;12.60;82.50;;;;;;4986806;28;20587;-90
2021/05/18 08:13:28;;;;;;;23.50;20.93;;;13.00;82.40;;;;;;4970074;28;20179;-89
2021/05/18 08:21:34;;;;;;;26.80;20.57;;;14.20;82.10;;;;;;4985583;28;20410;-87
2021/05/18 10:23:41;;;;;;;19.63;17.63;;;16.90;64.50;;;;;;5139267;22;20565;-87
2021/05/18 10:36:26;;;;;;;20.37;18.37;;;16.30;66.40;;;;;;4986516;28;20448;-86
2021/05/18 10:44:07;;;;;;;12.70;11.60;;;18.00;59.30;;;;;;5113088;22;20499;-91
2021/05/18 10:47:06;;;;;;;10.10;9.33;;;17.60;57.10;;;;;;4979540;28;20450;-91
2021/05/18 10:49:53;;;;;;;11.57;10.30;;;16.70;56.10;;;;;;5020493;23;20229;-89
2021/05/18 10:52:36;;;;;;;9.57;8.83;;;16.70;59.70;;;;;;5035624;23;20481;-88
2021/05/18 10:55:01;;;;;;;10.87;10.07;;;15.90;58.70;;;;;;5323018;22;20531;-88
2021/05/18 10:57:33;;;;;;;11.60;10.57;;;13.70;62.50;;;;;;4980089;28;20426;-88
2021/05/18 11:00:10;;;;;;;9.70;8.80;;;13.50;65.30;;;;;;4962326;28;20189;-88
2021/05/18 11:03:01;;;;;;;9.30;8.43;;;12.70;67.10;;;;;;4980531;28;20876;-89
2021/05/18 11:05:29;;;;;;;9.33;8.60;;;13.00;65.00;;;;;;4967937;28;20433;-89
2021/05/18 11:07:56;;;;;;;9.40;8.70;;;13.00;65.00;;;;;;5015694;23;20492;-89
2021/05/18 11:10:22;;;;;;;7.90;7.20;;;14.50;72.30;;;;;;5000652;28;20456;-88
2021/05/18 11:12:54;;;;;;;8.47;8.00;;;13.40;67.00;;;;;;5095074;23;20832;-88
2021/05/18 11:15:27;;;;;;;7.60;6.93;;;15.50;70.30;;;;;;5123257;23;20527;-90
2021/05/18 11:17:54;;;;;;;6.30;5.70;;;15.60;66.50;;;;;;5170216;22;20551;-87
2021/05/18 11:20:26;;;;;;;6.07;5.80;;;16.20;62.60;;;;;;4968894;28;20523;-89
2021/05/18 11:26:08;;;;;;;5.60;5.30;;;19.20;54.30;;;;;;4985742;28;20841;-88
2021/05/18 11:28:45;;;;;;;5.40;5.10;;;19.90;52.70;;;;;;4970498;28;20475;-88
2021/05/18 11:31:16;;;;;;;5.30;5.10;;;22.30;51.70;;;;;;4969020;28;20761;-88
2021/05/18 11:33:46;;;;;;;25.10;21.10;;;;;;;;;;4960803;29;20437;-88
2021/05/18 11:36:34;;;;;;;7.30;6.60;;;21.90;50.90;;;;;;4964433;28;20422;-89
2021/05/18 11:39:14;;;;;;;5.63;5.43;;;22.00;48.40;;;;;;5148199;23;20478;-88
2021/05/18 11:41:45;;;;;;;6.53;6.33;;;21.70;48.50;;;;;;5271807;22;20462;-88
2021/05/18 11:44:16;;;;;;;6.37;6.13;;;21.50;51.10;;;;;;5099809;23;20512;-90
2021/05/18 11:47:15;;;;;;;6.63;6.10;;;21.30;49.30;;;;;;5163597;23;20543;-87
2021/05/18 11:49:48;;;;;;;7.90;7.40;;;21.50;49.10;;;;;;4976165;28;20441;-90
2021/05/18 11:52:14;;;;;;;41.93;29.30;;;22.40;47.50;;;;;;4993342;28;20452;-89
2021/05/18 11:54:47;;;;;;;8.97;8.47;;;22.50;48.10;;;;;;5140379;23;20485;-90
2021/05/18 11:57:22;;;;;;;8.60;8.20;;;23.20;46.20;;;;;;4974194;28;20218;-90
2021/05/18 12:00:18;;;;;;;9.80;9.27;;;24.80;47.10;;;;;;4959980;28;20438;-89
2021/05/18 12:03:25;;;;;;;9.20;8.73;;;24.10;42.80;;;;;;4977063;28;20422;-90
2021/05/18 12:06:13;;;;;;;11.53;10.47;;;23.90;43.10;;;;;;4975259;28;20434;-91
2021/05/18 12:09:13;;;;;;;10.00;9.27;;;25.60;42.80;;;;;;4972220;28;20467;-88
2021/05/18 12:22:54;;;;;;;11.40;10.50;;;25.80;40.50;;;;;;5348913;22;20496;-88
2021/05/18 12:28:05;;;;;;;10.70;10.00;;;24.10;41.20;;;;;;5182836;22;20500;-90
2021/05/18 12:30:45;;;;;;;11.60;10.93;;;24.10;40.90;;;;;;4979279;28;20452;-88
2021/05/18 12:33:11;;;;;;;24.27;22.20;;;24.40;40.90;;;;;;5115446;22;20481;-89
2021/05/18 12:35:38;;;;;;;12.57;11.63;;;24.50;41.20;;;;;;5140208;22;20624;-90
2021/05/18 12:38:19;;;;;;;13.07;12.27;;;22.70;42.00;;;;;;5083849;23;20489;-91
2021/05/18 12:41:12;;;;;;;12.43;11.73;;;21.40;43.10;;;;;;4972644;28;20442;-88
2021/05/18 12:47:12;;;;;;;15.00;13.60;;;19.70;45.50;;;;;;5417835;22;20485;31
2021/05/18 12:49:40;;;;;;;8.53;8.00;;;18.40;50.40;;;;;;4969616;29;20457;-85
2021/05/18 12:52:11;;;;;;;12.50;11.50;;;16.60;53.50;;;;;;4969198;29;20418;-91
2021/05/18 12:54:47;;;;;;;24.60;15.80;;;14.60;59.90;;;;;;4969000;29;20414;-88
2021/05/18 12:57:26;;;;;;;19.03;17.10;;;14.20;68.50;;;;;;4948077;28;20438;-90
2021/05/18 13:00:18;;;;;;;21.03;19.03;;;14.20;68.20;;;;;;4950213;29;20430;-86
2021/05/18 13:02:46;;;;;;;18.23;16.37;;;12.60;68.30;;;;;;4970776;29;20445;-88
2021/05/18 13:05:50;;;;;;;17.50;15.30;;;12.70;72.70;;;;;;4957090;28;20427;-90
2021/05/18 13:08:42;;;;;;;13.87;12.57;;;12.40;72.30;;;;;;4896582;29;20532;-89
2021/05/18 13:13:48;;;;;;;19.83;11.53;;;12.10;71.20;;;;;;3132325;22;20571;-88
2021/05/18 13:16:22;;;;;;;14.53;13.17;;;13.10;74.90;;;;;;4994240;28;20435;-90
2021/05/18 13:19:09;;;;;;;13.03;11.93;;;12.20;72.00;;;;;;4975893;28;20509;-90
2021/05/18 13:21:47;;;;;;;12.00;10.90;;;11.90;74.50;;;;;;4978503;28;20441;-90
2021/05/18 13:27:13;;;;;;;14.53;12.83;;;12.10;78.00;;;;;;4952412;28;20511;-91
2021/05/18 13:29:40;;;;;;;10.63;9.80;;;10.40;78.30;;;;;;4970257;28;20502;-92
2021/05/18 13:32:10;;;;;;;13.43;12.43;;;10.90;71.10;;;;;;4989320;28;20185;-90
2021/05/18 13:34:48;;;;;;;11.77;10.67;;;12.40;73.80;;;;;;4987289;28;20421;-91
2021/05/18 13:37:16;;;;;;;11.30;10.40;;;12.50;80.40;;;;;;4953327;28;20433;-91
2021/05/18 13:39:41;;;;;;;9.57;8.97;;;13.90;79.70;;;;;;4987498;28;20417;-90
2021/05/18 13:42:07;;;;;;;9.77;9.07;;;12.70;77.90;;;;;;4970810;28;20452;-90
2021/05/18 13:44:36;;;;;;;12.70;11.80;;;13.10;73.90;;;;;;4981216;28;20189;-89
2021/05/18 13:47:05;;;;;;;9.27;8.37;;;15.50;73.60;;;;;;4963211;28;20461;-88
2021/05/18 13:49:36;;;;;;;8.20;7.70;;;15.40;67.80;;;;;;4964829;28;20457;-91
2021/05/18 13:52:03;;;;;;;8.57;7.53;;;16.60;60.50;;;;;;4967144;28;20477;-91
2021/05/18 13:54:29;;;;;;;8.30;7.60;;;17.40;58.20;;;;;;4966588;28;20701;-87
2021/05/18 13:56:55;;;;;;;10.73;6.83;;;18.50;58.30;;;;;;4971596;28;20417;-90
2021/05/18 13:59:23;;;;;;;7.33;7.00;;;19.10;55.70;;;;;;4972263;28;20436;-87
2021/05/18 14:01:58;;;;;;;7.80;7.30;;;20.00;51.40;;;;;;4972206;28;20433;-89
2021/05/18 14:04:25;;;;;;;7.83;7.30;;;20.50;54.20;;;;;;4972326;28;20428;-88
2021/05/18 14:07:50;;;;;;;;;;;;;;;;;;;;;
2021/05/18 14:10:18;;;;;;;6.40;6.00;;;21.40;48.90;;;;;;4968081;29;20434;-92
2021/05/18 14:12:47;;;;;;;7.23;6.90;;;22.60;51.50;;;;;;4936956;28;20417;-90
2021/05/18 14:15:40;;;;;;;7.00;6.43;;;23.20;50.90;;;;;;4973130;28;20570;-92
2021/05/18 14:18:15;;;;;;;17.57;16.00;;;22.30;50.30;;;;;;4991793;28;20413;-90
2021/05/18 14:21:20;;;;;;;7.10;6.80;;;22.80;50.10;;;;;;4971181;28;20954;-91
2021/05/18 14:24:09;;;;;;;7.20;6.80;;;22.90;47.00;;;;;;4969671;28;20417;-89
2021/05/18 14:26:46;;;;;;;6.70;6.50;;;22.70;47.90;;;;;;4958220;28;20493;-91
2021/05/18 14:29:30;;;;;;;7.63;7.17;;;21.40;48.00;;;;;;4961421;28;20404;-89
2021/05/18 14:31:59;;;;;;;6.30;6.10;;;21.50;47.50;;;;;;4987551;28;20429;-89
2021/05/18 14:34:46;;;;;;;7.00;6.67;;;22.00;46.80;;;;;;4973951;28;20417;-89
2021/05/18 14:44:10;;;;;;;8.50;8.10;;;19.70;50.30;;;;;;4992435;28;20444;-89
2021/05/18 14:55:24;;;;;;;8.30;7.50;;;18.30;52.70;;;;;;4973053;29;20452;-89
2021/05/18 14:57:52;;;;;;;8.20;7.80;;;17.80;53.20;;;;;;5033604;22;20493;-88
2021/05/18 15:00:22;;;;;;;7.40;7.00;;;19.50;55.00;;;;;;4986088;28;20425;-91
2021/05/18 15:02:55;;;;;;;9.03;8.53;;;18.20;53.60;;;;;;4975683;28;20450;-89
2021/05/18 15:05:29;;;;;;;8.70;8.17;;;16.90;56.00;;;;;;4994110;28;20932;-89
2021/05/18 15:07:59;;;;;;;9.23;8.63;;;16.90;53.30;;;;;;5051565;22;20484;-89
2021/05/18 15:10:28;;;;;;;7.27;7.00;;;16.90;56.90;;;;;;4992139;28;20425;-89
2021/05/18 15:12:58;;;;;;;7.57;7.27;;;17.60;56.50;;;;;;4971533;28;20429;-87
2021/05/18 15:15:28;;;;;;;6.87;6.60;;;16.50;55.10;;;;;;4972288;28;20450;-91
2021/05/18 15:18:03;;;;;;;6.20;5.90;;;16.50;56.20;;;;;;4990428;28;20422;-89
2021/05/18 15:20:41;;;;;;;6.00;5.80;;;16.50;54.80;;;;;;4988684;28;20429;-87
2021/05/18 15:23:10;;;;;;;4.43;4.23;;;16.20;55.60;;;;;;4976421;28;20422;-90
2021/05/18 15:26:00;;;;;;;3.30;3.30;;;17.50;55.90;;;;;;4991213;28;20497;-89
2021/05/18 15:28:34;;;;;;;2.37;2.27;;;16.40;53.50;;;;;;4985403;28;20508;-88
2021/05/18 15:31:11;;;;;;;4.63;2.70;;;16.60;52.00;;;;;;5247544;23;20653;-89
2021/05/18 15:36:15;;;;;;;1.83;1.83;;;16.70;51.80;;;;;;2907291;22;20551;-89
2021/05/18 15:38:47;;;;;;;2.43;1.50;;;15.40;51.10;;;;;;4980522;28;20431;-88
2021/05/18 15:41:14;;;;;;;1.73;1.73;;;16.70;50.40;;;;;;4957465;28;20476;-88
2021/05/18 15:49:00;;;;;;;54.43;26.03;;;16.40;51.60;;;;;;4746008;22;20490;-88
2021/05/18 15:54:04;;;;;;;1.90;1.80;;;16.30;50.80;;;;;;4995800;23;20472;-93
2021/05/18 15:56:45;;;;;;;2.10;1.87;;;16.10;52.70;;;;;;4981136;28;20437;-90
2021/05/18 15:59:14;;;;;;;1.57;1.57;;;15.30;52.00;;;;;;4980295;28;20477;-92
2021/05/18 16:01:43;;;;;;;1.80;1.80;;;15.20;51.90;;;;;;4977097;28;20445;-92
2021/05/18 16:04:51;;;;;;;1.70;1.67;;;15.80;52.90;;;;;;4978635;28;20426;-91
2021/05/18 16:12:57;;;;;;;5.10;2.27;;;15.60;52.80;;;;;;5498754;22;20444;-88
2021/05/18 16:23:40;;;;;;;2.30;2.20;;;15.70;52.90;;;;;;4940410;22;10001662;-91
2021/05/18 16:26:07;;;;;;;2.10;2.10;;;15.70;52.10;;;;;;4980877;28;20217;-92
2021/05/18 16:29:01;;;;;;;2.37;2.37;;;16.00;51.40;;;;;;4968429;28;20472;-88
2021/05/18 16:47:25;;;;;;;3.00;3.00;;;16.50;49.10;;;;;;5484861;22;20485;-87
2021/05/18 16:50:04;;;;;;;5.80;3.40;;;16.30;49.90;;;;;;4973938;28;20469;-89
2021/05/18 16:52:52;;;;;;;4.23;4.13;;;17.10;51.40;;;;;;4979363;28;20229;-90
2021/05/18 16:58:13;;;;;;;8.90;8.20;;;16.20;52.30;;;;;;5931171;22;20491;-88
2021/05/18 17:06:00;;;;;;;;;;;;;;;;;;;;;
2021/05/18 17:11:09;;;;;;;4.17;3.97;;;15.80;52.00;;;;;;5448043;22;20470;-88
2021/05/18 17:27:35;;;;;;;3.17;3.13;;;15.10;55.00;;;;;;5395465;22;20561;-87
2021/05/18 17:30:04;;;;;;;4.83;4.53;;;14.90;56.60;;;;;;4996261;28;20500;-89
2021/05/18 17:32:31;;;;;;;7.43;6.40;;;14.20;55.80;;;;;;4980277;28;20487;-90
2021/05/18 17:35:23;;;;;;;3.50;3.40;;;14.20;55.90;;;;;;4971819;28;20175;-92
2021/05/18 17:37:50;;;;;;;3.53;3.40;;;14.70;56.80;;;;;;5217930;23;20492;-89
2021/05/18 17:40:24;;;;;;;4.83;4.50;;;15.30;58.70;;;;;;5069152;23;20469;-91
2021/05/18 17:42:54;;;;;;;4.23;4.07;;;15.50;58.20;;;;;;4981041;28;20412;-91
2021/05/18 17:47:58;;;;;;;3.05;3.05;;;14.50;57.60;;;;;;3688760;22;20471;-91
2021/05/18 17:50:30;;;;;;;2.70;2.70;;;14.70;57.70;;;;;;4979534;28;20193;-88
2021/05/18 17:52:55;;;;;;;7.47;6.50;;;14.60;58.40;;;;;;4964623;28;20465;-91
2021/05/18 18:01:11;;;;;;;2.70;2.70;;;14.90;57.80;;;;;;5350242;22;20474;-90
2021/05/18 18:03:39;;;;;;;3.20;3.20;;;14.60;58.30;;;;;;5591063;23;20505;-90
2021/05/18 18:06:12;;;;;;;4.03;3.77;;;14.70;59.20;;;;;;5143021;23;20481;-90
2021/05/18 18:22:03;;;;;;;3.30;3.20;;;14.60;58.70;;;;;;5347509;22;20535;-90
2021/05/18 18:27:13;;;;;;;3.30;3.20;;;14.60;59.50;;;;;;5086941;22;20484;-88
2021/05/18 18:29:40;;;;;;;3.50;3.40;;;14.30;59.20;;;;;;4997728;28;20424;-91
2021/05/18 18:32:14;;;;;;;3.00;2.93;;;14.60;60.30;;;;;;4981433;28;20428;-89
2021/05/18 18:34:46;;;;;;;3.60;3.60;;;14.40;59.20;;;;;;4997116;28;20483;-91
2021/05/18 19:18:44;;;;;;;8.10;7.60;;;13.60;64.50;;;;;;5031374;22;20476;-91
2021/05/18 19:21:15;;;;;;;8.93;8.33;;;12.60;64.20;;;;;;4983256;28;20461;-90
2021/05/18 19:23:44;;;;;;;10.30;9.00;;;13.60;67.00;;;;;;4999533;28;20428;-91
2021/05/18 19:28:46;;;;;;;10.17;9.50;;;13.30;66.70;;;;;;4997863;28;20556;-91
2021/05/18 19:31:28;;;;;;;8.93;8.30;;;13.30;66.20;;;;;;5000440;28;20429;-90
2021/05/18 19:33:58;;;;;;;10.20;9.32;;;13.60;67.70;;;;;;4982290;28;20432;-90
2021/05/18 19:36:51;;;;;;;9.93;9.33;;;13.10;69.60;;;;;;4998680;28;20166;-90
2021/05/18 19:47:48;;;;;;;10.40;9.80;;;13.00;69.20;;;;;;4997096;28;20472;-90
2021/05/18 19:50:20;;;;;;;12.20;11.40;;;13.40;71.10;;;;;;4974037;28;20417;-88
2021/05/18 19:52:51;;;;;;;12.10;11.20;;;12.90;70.90;;;;;;4979160;28;20548;-91
2021/05/18 19:55:31;;;;;;;11.53;10.77;;;13.90;74.80;;;;;;4971533;28;20436;-91
2021/05/18 19:58:13;;;;;;;12.37;11.50;;;12.70;71.30;;;;;;4980715;28;20430;-90
2021/05/18 20:19:24;;;;;;;12.50;11.70;;;11.40;71.50;;;;;;4989026;28;20440;-89
2021/05/18 20:20:52;;;;;;;13.00;12.00;;;12.40;74.40;;;;;;4995191;28;20549;-89
2021/05/18 20:23:21;;;;;;;13.73;12.83;;;12.50;75.80;;;;;;4976240;28;20409;-88
2021/05/18 20:25:47;;;;;;;13.02;12.02;;;12.30;74.20;;;;;;4973755;28;20444;-88
2021/05/18 20:28:14;;;;;;;12.50;11.70;;;13.20;77.30;;;;;;4972929;28;20301;-88
2021/05/18 20:30:40;;;;;;;15.17;13.90;;;12.80;78.10;;;;;;4974102;28;20734;-88
2021/05/18 20:33:10;;;;;;;15.33;13.87;;;12.30;77.90;;;;;;4960591;28;20963;-89
2021/05/18 20:41:05;;;;;;;15.47;14.07;;;13.00;77.00;;;;;;4993847;28;20538;-88
2021/05/18 20:43:33;;;;;;;15.73;14.20;;;12.30;74.80;;;;;;4981107;28;20432;-88
2021/05/18 20:46:03;;;;;;;15.63;14.45;;;12.20;75.40;;;;;;4981308;28;20421;-88
2021/05/18 20:48:31;;;;;;;15.70;13.93;;;12.10;75.30;;;;;;4993646;28;20217;-88
2021/05/18 20:50:58;;;;;;;14.75;13.70;;;12.10;75.40;;;;;;4979277;28;20398;-88
2021/05/18 20:53:23;;;;;;;17.20;15.80;;;12.90;78.50;;;;;;4981892;28;20204;-88
2021/05/18 20:55:50;;;;;;;18.07;16.33;;;11.80;75.90;;;;;;4981035;28;20258;-88
2021/05/18 20:58:16;;;;;;;19.05;17.35;;;11.90;75.90;;;;;;4998288;28;20234;-88
2021/05/18 21:00:42;;;;;;;19.17;17.47;;;13.10;79.40;;;;;;4980950;28;20192;-88
2021/05/18 21:03:09;;;;;;;19.03;17.40;;;11.80;77.50;;;;;;4980938;28;20192;-88
2021/05/18 21:05:37;;;;;;;20.33;18.40;;;12.80;78.50;;;;;;4997179;28;20181;-88
2021/05/18 21:10:38;;;;;;;20.57;18.57;;;11.70;78.40;;;;;;4982167;28;20430;-88
2021/05/18 21:15:49;;;;;;;20.67;18.67;;;12.10;81.80;;;;;;4999389;28;20210;-88
2021/05/18 21:18:25;;;;;;;21.88;19.77;;;11.20;80.60;;;;;;4968377;28;20408;-88
2021/05/18 21:20:53;;;;;;;22.67;20.50;;;11.10;79.60;;;;;;4982242;28;20158;-88
2021/05/18 21:23:19;;;;;;;21.83;19.75;;;12.00;81.50;;;;;;4998604;28;20411;-88
2021/05/18 21:25:45;;;;;;;21.80;19.70;;;11.70;81.40;;;;;;4965414;28;20186;-88
2021/05/18 21:28:11;;;;;;;19.93;17.97;;;10.90;82.40;;;;;;4975998;28;20497;-89
2021/05/18 21:30:39;;;;;;;22.30;20.20;;;11.20;80.80;;;;;;4974922;28;20424;-89
2021/05/18 21:33:05;;;;;;;22.60;19.90;;;11.10;81.70;;;;;;4974128;28;20426;-89
2021/05/18 21:35:39;;;;;;;23.50;21.17;;;12.50;85.00;;;;;;4991834;28;20426;-88
2021/05/18 21:38:06;;;;;;;25.57;22.80;;;10.80;81.40;;;;;;4958877;28;20174;-88
2021/05/18 21:43:13;;;;;;;24.60;22.13;;;12.20;84.60;;;;;;4989714;28;20437;-88
2021/05/18 21:45:39;;;;;;;31.08;22.45;;;11.50;84.00;;;;;;4972862;28;20523;-88
2021/05/18 21:48:05;;;;;;;25.33;22.60;;;10.50;83.30;;;;;;4974076;28;20225;-88
2021/05/18 21:50:31;;;;;;;24.63;22.23;;;9.70;83.60;;;;;;4970870;28;20444;-87
2021/05/18 21:52:57;;;;;;;24.00;21.40;;;10.60;81.70;;;;;;4986801;28;20414;-88
2021/05/18 21:55:23;;;;;;;24.63;21.87;;;10.70;82.40;;;;;;4970107;28;20409;-89
2021/05/18 21:57:50;;;;;;;27.27;23.10;;;11.20;82.70;;;;;;4970700;28;20170;-89
2021/05/18 22:00:30;;;;;;;23.83;21.27;;;11.10;83.60;;;;;;4991830;28;20428;-89
2021/05/18 22:02:57;;;;;;;24.75;22.13;;;9.50;81.80;;;;;;4974266;28;20181;-87
2021/05/18 22:05:24;;;;;;;27.60;23.17;;;10.30;83.60;;;;;;4973676;28;20241;-88
2021/05/18 22:07:51;;;;;;;25.50;22.80;;;10.20;84.10;;;;;;4956819;28;20477;-88
2021/05/18 22:15:44;;;;;;;22.75;20.52;;;9.80;84.50;;;;;;4990188;28;20417;-90
2021/05/18 22:26:23;;;;;;;25.80;23.10;;;9.10;83.70;;;;;;4991550;28;20197;-88
2021/05/18 22:28:52;;;;;;;26.17;23.37;;;11.50;86.20;;;;;;4968580;28;20233;-88
2021/05/18 22:31:17;;;;;;;27.17;23.88;;;11.00;86.90;;;;;;4973031;28;20417;-89
2021/05/18 22:33:43;;;;;;;27.97;23.80;;;9.70;85.30;;;;;;4974304;28;20271;-89
2021/05/18 22:36:10;;;;;;;25.20;21.80;;;9.70;85.60;;;;;;4973306;28;20178;-89
2021/05/18 22:38:37;;;;;;;26.43;23.67;;;10.90;87.00;;;;;;4970204;28;20500;-88
2021/05/18 22:41:03;;;;;;;24.00;21.50;;;10.80;85.30;;;;;;4952625;28;20429;-87
2021/05/18 22:43:29;;;;;;;27.25;23.13;;;10.60;86.40;;;;;;4967679;28;20446;-89
2021/05/18 22:45:55;;;;;;;29.00;23.90;;;9.70;85.70;;;;;;4985939;28;20189;-89
2021/05/18 22:48:21;;;;;;;25.47;22.87;;;11.40;86.20;;;;;;4952852;28;20240;-88
2021/05/18 22:50:48;;;;;;;28.63;24.98;;;10.10;84.60;;;;;;4968555;28;20181;-88
2021/05/18 22:53:14;;;;;;;31.08;24.08;;;10.70;87.60;;;;;;4969604;28;20178;-88
2021/05/18 22:55:40;;;;;;;32.08;24.75;;;9.50;86.20;;;;;;4968406;28;20193;-89
2021/05/18 22:58:06;;;;;;;27.90;23.67;;;9.30;86.20;;;;;;4969364;28;20629;-89
2021/05/18 23:00:33;;;;;;;30.40;24.30;;;9.80;87.80;;;;;;4970059;28;20445;-88
2021/05/18 23:03:02;;;;;;;31.90;25.90;;;10.30;85.80;;;;;;4969493;28;20432;-88
2021/05/18 23:05:30;;;;;;;26.38;23.48;;;9.30;87.00;;;;;;4969432;28;20199;-88
2021/05/18 23:07:56;;;;;;;32.05;26.40;;;10.00;85.80;;;;;;4969785;28;20214;-89
2021/05/18 23:10:21;;;;;;;30.53;25.27;;;8.90;87.30;;;;;;4970620;28;20174;-88
2021/05/18 23:12:47;;;;;;;30.67;25.60;;;10.30;88.90;;;;;;4969619;28;20433;-88
2021/05/18 23:15:15;;;;;;;26.80;23.70;;;9.00;88.20;;;;;;4969538;28;20617;-88
2021/05/18 23:17:42;;;;;;;28.55;25.02;;;10.90;87.20;;;;;;4968745;28;20618;-88
2021/05/18 23:20:13;;;;;;;30.65;26.58;;;9.20;85.70;;;;;;4986274;28;20206;-88
2021/05/18 23:22:40;;;;;;;33.17;26.05;;;9.30;87.30;;;;;;4968466;28;20170;-88
2021/05/18 23:25:06;;;;;;;31.80;28.13;;;10.40;86.40;;;;;;4968004;28;20177;-88
2021/05/18 23:27:32;;;;;;;33.88;26.80;;;10.20;87.40;;;;;;4967574;28;20229;-88
2021/05/18 23:29:58;;;;;;;33.77;24.70;;;9.20;86.60;;;;;;4967919;28;20178;-88
2021/05/18 23:32:23;;;;;;;34.53;28.33;;;9.20;86.30;;;;;;4968397;28;20194;-90
2021/05/18 23:34:49;;;;;;;33.27;28.60;;;11.00;87.90;;;;;;4969004;28;20831;-87
2021/05/18 23:37:15;;;;;;;35.80;28.50;;;9.80;87.20;;;;;;4968254;28;20180;-88
2021/05/18 23:39:41;;;;;;;38.80;30.57;;;10.70;89.10;;;;;;4967634;28;20554;-87
2021/05/18 23:42:06;;;;;;;43.30;33.90;;;9.00;86.70;;;;;;4983787;28;20174;-88
2021/05/18 23:44:32;;;;;;;39.30;31.00;;;9.10;85.80;;;;;;4984340;28;20257;-89
2021/05/18 23:46:58;;;;;;;38.30;31.40;;;10.90;88.10;;;;;;4966564;28;20180;-88
2021/05/18 23:49:24;;;;;;;37.33;30.55;;;9.50;87.40;;;;;;4967181;28;20533;-88
2021/05/18 23:51:50;;;;;;;41.20;30.88;;;9.60;86.20;;;;;;4953372;28;20185;-88
2021/05/18 23:54:21;;;;;;;43.47;32.60;;;8.90;84.90;;;;;;4968602;28;20178;-89
2021/05/18 23:56:47;;;;;;;42.03;30.80;;;10.40;85.70;;;;;;4972379;28;20413;-89
2021/05/18 23:59:13;;;;;;;37.70;30.60;;;9.10;86.50;;;;;;4972871;28;20429;-89
